HAAB/ADD METAR and TAF weather

Enter ICAO airport designator
Station Type Date Time Source
HAAB METAR 2019/12/10 03:00 UTC NOAA

HAAB 100300Z 08005KT 9999 FEW010 BKN030 14/12 Q1026


Station Type Date Time Source
HAAB Decoded METAR 2019/12/10 03:00 UTC NOAA

Addis Ababa, Ethiopia (HAAB) 08-59N 038-48E 2324M
Dec 09, 2019 - 10:00 PM EST / 2019.12.10 0300 UTC
Wind: from the E (080 degrees) at 6 MPH (5 KT):0
Visibility: greater than 7 mile(s):0
Sky conditions: mostly cloudy
Temperature: 57 F (14 C)
Dew Point: 53 F (12 C)
Relative Humidity: 87%
Pressure (altimeter): 30.30 in. Hg (1026 hPa)
ob: HAAB 100300Z 08005KT 9999 FEW010 BKN030 14/12 Q1026
cycle: 3

Station Type Date Time Source
HAAB TAF 2019/12/10 00:36 UTC NOAA

TAF HAAB 092130Z 1000/1106 05006KT 8000 BR SCT025 SCT090
BECMG 1005/1008 11009KT 9999 BKN025 BKN090

Example: see airport list